Time;durP1;ratioP1;P1;durP2;ratioP2;P2;SDS_P1;SDS_P2;PMS_P1;PMS_P2;Temp;Humidity;BMP_temperature;BMP_pressure;BME280_temperature;BME280_humidity;BME280_pressure;Samples;Min_cycle;Max_cycle;Signal;HPM_P1;HPM_P2
2023/01/21 00:00:05;;;;;;;3.80;3.30;;;;;;;;;;5039365;28;20257;-74
2023/01/21 00:02:31;;;;;;;4.37;3.13;;;;;;;;;;5038462;28;20675;-73
2023/01/21 00:04:57;;;;;;;3.97;3.33;;;;;;;;;;5036074;28;20704;-76
2023/01/21 00:07:24;;;;;;;3.83;3.33;;;;;;;;;;5034157;28;20179;-71
2023/01/21 00:09:51;;;;;;;4.63;3.40;;;;;;;;;;5027935;28;20176;-74
2023/01/21 00:12:17;;;;;;;3.60;3.20;;;;;;;;;;5029714;28;20182;-73
2023/01/21 00:14:43;;;;;;;3.83;3.20;;;;;;;;;;5041654;28;20235;-76
2023/01/21 00:17:09;;;;;;;5.30;3.60;;;;;;;;;;5034191;28;20198;-75
2023/01/21 00:19:35;;;;;;;4.30;3.30;;;;;;;;;;5048569;28;20261;-73
2023/01/21 00:22:02;;;;;;;3.40;2.93;;;;;;;;;;5050654;28;20697;-73
2023/01/21 00:24:28;;;;;;;4.83;3.33;;;;;;;;;;5046119;28;20546;-73
2023/01/21 00:26:54;;;;;;;4.97;3.63;;;;;;;;;;5041791;28;20737;-76
2023/01/21 00:29:20;;;;;;;5.83;3.60;;;;;;;;;;5031039;28;20198;-74
2023/01/21 00:31:47;;;;;;;4.57;3.67;;;;;;;;;;5039581;28;20173;-74
2023/01/21 00:34:13;;;;;;;6.30;4.67;;;;;;;;;;5036182;28;20218;-74
2023/01/21 00:36:40;;;;;;;7.70;6.00;;;;;;;;;;5035960;28;20229;-74
2023/01/21 00:39:07;;;;;;;7.70;5.90;;;;;;;;;;5045743;28;20693;-74
2023/01/21 00:41:33;;;;;;;7.17;5.93;;;;;;;;;;5045573;28;20206;-74
2023/01/21 00:43:59;;;;;;;6.97;6.00;;;;;;;;;;5024581;28;20236;-76
2023/01/21 00:46:26;;;;;;;7.30;5.57;;;;;;;;;;5034678;28;20174;-75
2023/01/21 00:48:54;;;;;;;8.03;5.77;;;;;;;;;;5039207;28;21038;-74
2023/01/21 00:51:21;;;;;;;8.83;6.40;;;;;;;;;;5031708;28;20186;-74
2023/01/21 00:53:47;;;;;;;9.63;6.67;;;;;;;;;;5047836;28;20201;-74
2023/01/21 00:56:13;;;;;;;7.00;5.63;;;;;;;;;;5041504;28;20178;-74
2023/01/21 00:58:42;;;;;;;7.37;5.90;;;;;;;;;;5044902;28;20193;-74
2023/01/21 01:01:10;;;;;;;7.50;6.37;;;;;;;;;;5033796;28;20194;-75
2023/01/21 01:03:37;;;;;;;7.37;6.10;;;;;;;;;;5029069;28;20228;-75
2023/01/21 01:06:15;;;;;;;7.47;5.90;;;;;;;;;;5032669;28;20263;-73
2023/01/21 01:08:42;;;;;;;8.17;5.87;;;;;;;;;;5045548;28;20178;-74
2023/01/21 01:11:09;;;;;;;8.33;6.50;;;;;;;;;;5045451;28;20331;-74
2023/01/21 01:13:35;;;;;;;7.57;6.33;;;;;;;;;;5043075;28;20534;-74
2023/01/21 01:16:01;;;;;;;9.73;6.10;;;;;;;;;;5046477;28;20219;-74
2023/01/21 01:18:29;;;;;;;9.30;6.73;;;;;;;;;;5045460;28;20181;-74
2023/01/21 01:20:55;;;;;;;8.43;6.63;;;;;;;;;;5045536;28;20175;-74
2023/01/21 01:23:22;;;;;;;7.40;6.33;;;;;;;;;;5042788;28;20231;-74
2023/01/21 01:25:55;;;;;;;9.20;6.47;;;;;;;;;;5045187;28;20265;-74
2023/01/21 01:28:21;;;;;;;8.03;6.07;;;;;;;;;;5039738;28;20193;-75
2023/01/21 01:30:47;;;;;;;8.37;5.87;;;;;;;;;;5028681;28;20253;-74
2023/01/21 01:33:14;;;;;;;7.87;6.43;;;;;;;;;;5012652;28;20222;-74
2023/01/21 01:35:40;;;;;;;8.53;6.33;;;;;;;;;;5043862;28;20182;-74
2023/01/21 01:38:08;;;;;;;7.47;6.17;;;;;;;;;;5057840;28;20774;-74
2023/01/21 01:40:34;;;;;;;9.03;6.93;;;;;;;;;;5045706;28;20194;-74
2023/01/21 01:43:00;;;;;;;9.80;6.97;;;;;;;;;;5032103;28;20214;-74
2023/01/21 01:45:27;;;;;;;10.17;7.00;;;;;;;;;;5038037;28;20179;-74
2023/01/21 01:47:59;;;;;;;9.50;7.13;;;;;;;;;;5022530;28;20175;-74
2023/01/21 01:50:28;;;;;;;8.90;7.07;;;;;;;;;;5040746;28;20182;-74
2023/01/21 01:52:55;;;;;;;9.77;7.70;;;;;;;;;;5035985;28;20198;-74
2023/01/21 01:55:22;;;;;;;10.77;7.37;;;;;;;;;;5043372;28;20273;-74
2023/01/21 01:57:49;;;;;;;12.00;8.97;;;;;;;;;;5034803;28;20190;-75
2023/01/21 02:00:16;;;;;;;10.90;8.53;;;;;;;;;;5041899;28;20262;-74
2023/01/21 02:02:42;;;;;;;11.87;9.40;;;;;;;;;;5025389;28;22023;-75
2023/01/21 02:05:10;;;;;;;13.93;10.33;;;;;;;;;;5043966;28;20253;-74
2023/01/21 02:07:42;;;;;;;12.77;10.17;;;;;;;;;;5022457;28;20189;-74
2023/01/21 02:10:09;;;;;;;14.77;10.83;;;;;;;;;;5041254;28;20703;-75
2023/01/21 02:12:36;;;;;;;15.27;11.20;;;;;;;;;;5037088;28;20757;-74
2023/01/21 02:15:03;;;;;;;15.67;11.73;;;;;;;;;;5044815;28;20178;-75
2023/01/21 02:17:44;;;;;;;16.97;12.67;;;;;;;;;;5040146;28;20664;-75
2023/01/21 02:20:10;;;;;;;17.43;12.70;;;;;;;;;;5044421;28;20203;-74
2023/01/21 02:22:39;;;;;;;17.37;13.40;;;;;;;;;;5038949;28;20207;-74
2023/01/21 02:25:08;;;;;;;17.27;13.20;;;;;;;;;;5046333;28;20273;-74
2023/01/21 02:27:40;;;;;;;19.00;13.60;;;;;;;;;;5037653;28;20174;-74
2023/01/21 02:30:21;;;;;;;18.17;13.87;;;;;;;;;;5039294;28;20554;-74
2023/01/21 02:33:08;;;;;;;21.57;14.57;;;;;;;;;;5038075;28;20977;-74
2023/01/21 02:35:39;;;;;;;21.33;14.60;;;;;;;;;;5045090;28;20181;-74
2023/01/21 02:38:17;;;;;;;20.60;14.73;;;;;;;;;;5039989;28;20213;-74
2023/01/21 02:40:53;;;;;;;22.93;15.10;;;;;;;;;;5032508;28;20189;-75
2023/01/21 02:43:35;;;;;;;23.87;16.53;;;;;;;;;;5024615;28;20216;-74
2023/01/21 02:46:07;;;;;;;23.17;15.97;;;;;;;;;;5042458;28;20174;-75
2023/01/21 02:48:39;;;;;;;21.70;15.03;;;;;;;;;;5046277;28;20212;-75
2023/01/21 02:51:06;;;;;;;24.23;16.37;;;;;;;;;;5043760;28;20178;-75
2023/01/21 02:53:33;;;;;;;24.40;16.63;;;;;;;;;;5043266;28;21623;-74
2023/01/21 02:56:02;;;;;;;24.13;15.30;;;;;;;;;;5035409;28;22372;-74
2023/01/21 02:58:31;;;;;;;24.90;16.77;;;;;;;;;;5026865;28;20208;-74
2023/01/21 03:00:57;;;;;;;27.73;17.60;;;;;;;;;;5034982;28;20186;-74
2023/01/21 03:03:23;;;;;;;25.53;17.27;;;;;;;;;;5046439;28;20214;-74
2023/01/21 03:06:05;;;;;;;26.40;18.27;;;;;;;;;;5010455;28;20189;-73
2023/01/21 03:08:41;;;;;;;26.30;17.00;;;;;;;;;;5040856;28;20178;-74
2023/01/21 03:11:17;;;;;;;24.63;16.93;;;;;;;;;;5035164;28;20705;-74
2023/01/21 03:16:57;;;;;;;25.70;17.10;;;;;;;;;;5038342;28;20261;-74
2023/01/21 03:19:32;;;;;;;28.57;18.83;;;;;;;;;;5044602;28;20194;-74
2023/01/21 03:21:59;;;;;;;24.50;16.90;;;;;;;;;;5037609;28;20185;-74
2023/01/21 03:24:25;;;;;;;28.57;18.97;;;;;;;;;;5059147;28;20219;-75
2023/01/21 03:26:54;;;;;;;29.33;18.67;;;;;;;;;;5042336;28;20169;-74
2023/01/21 03:29:25;;;;;;;28.10;17.90;;;;;;;;;;5043990;28;20178;-74
2023/01/21 03:31:54;;;;;;;26.73;16.93;;;;;;;;;;5018800;28;20196;-74
2023/01/21 03:34:22;;;;;;;29.57;19.10;;;;;;;;;;5035091;28;20218;-74
2023/01/21 03:36:53;;;;;;;27.77;18.57;;;;;;;;;;5038368;28;20222;-74
2023/01/21 03:39:32;;;;;;;27.30;19.92;;;;;;;;;;5039973;28;20447;-74
2023/01/21 03:41:58;;;;;;;27.27;18.53;;;;;;;;;;5036928;28;20535;-75
2023/01/21 03:44:25;;;;;;;26.33;18.00;;;;;;;;;;5033054;28;20213;-74
2023/01/21 03:46:57;;;;;;;30.57;18.80;;;;;;;;;;5041256;28;20192;-74
2023/01/21 03:49:42;;;;;;;25.17;18.20;;;;;;;;;;5037409;28;20197;-74
2023/01/21 03:52:09;;;;;;;28.00;17.57;;;;;;;;;;5035224;28;20188;-75
2023/01/21 03:54:36;;;;;;;26.50;17.77;;;;;;;;;;5057208;28;20216;-76
2023/01/21 03:57:02;;;;;;;24.57;15.07;;;;;;;;;;5041539;28;20178;-75
2023/01/21 03:59:28;;;;;;;26.57;17.83;;;;;;;;;;5036664;28;20582;-75
2023/01/21 04:01:54;;;;;;;26.83;18.00;;;;;;;;;;5038859;28;20195;-74
2023/01/21 04:04:21;;;;;;;26.53;17.40;;;;;;;;;;5041713;28;20304;-74
2023/01/21 04:06:47;;;;;;;25.10;17.53;;;;;;;;;;5037858;28;20186;-74
2023/01/21 04:09:13;;;;;;;26.80;17.13;;;;;;;;;;5034242;28;20626;-74
2023/01/21 04:11:39;;;;;;;27.80;17.50;;;;;;;;;;5038751;28;20261;-75
2023/01/21 04:14:06;;;;;;;28.20;17.30;;;;;;;;;;5038053;28;20288;-75
2023/01/21 04:16:32;;;;;;;24.43;16.50;;;;;;;;;;5040215;28;20186;-74
2023/01/21 04:18:58;;;;;;;24.77;15.83;;;;;;;;;;5025905;28;20186;-74
2023/01/21 04:21:24;;;;;;;25.33;15.90;;;;;;;;;;5043778;28;20185;-75
2023/01/21 04:23:50;;;;;;;24.13;15.10;;;;;;;;;;5042600;28;20637;-75
2023/01/21 04:26:17;;;;;;;25.03;15.63;;;;;;;;;;5028886;28;20181;-75
2023/01/21 04:28:43;;;;;;;24.37;15.13;;;;;;;;;;5031858;28;20224;-75
2023/01/21 04:31:09;;;;;;;20.57;13.93;;;;;;;;;;5035905;28;20654;-75
2023/01/21 04:33:35;;;;;;;24.63;15.87;;;;;;;;;;5033146;28;20205;-75
2023/01/21 04:36:01;;;;;;;21.43;13.73;;;;;;;;;;5041199;28;20203;-75
2023/01/21 04:38:27;;;;;;;22.80;14.37;;;;;;;;;;5038139;28;20178;-74
2023/01/21 04:40:53;;;;;;;24.07;15.47;;;;;;;;;;5023596;28;20189;-74
2023/01/21 04:43:20;;;;;;;23.93;14.70;;;;;;;;;;5037431;28;20206;-75
2023/01/21 04:45:46;;;;;;;26.07;14.87;;;;;;;;;;5041611;28;20194;-74
2023/01/21 04:48:12;;;;;;;21.43;14.20;;;;;;;;;;5040349;28;20931;-74
2023/01/21 04:50:39;;;;;;;20.50;13.70;;;;;;;;;;5041393;28;20194;-74
2023/01/21 04:53:05;;;;;;;21.87;14.03;;;;;;;;;;5042114;28;20214;-74
2023/01/21 04:55:31;;;;;;;21.20;13.47;;;;;;;;;;5042016;28;20530;-74
2023/01/21 04:57:57;;;;;;;18.13;12.57;;;;;;;;;;5039226;28;20648;-74
2023/01/21 05:00:23;;;;;;;19.20;12.57;;;;;;;;;;5027943;28;20606;-75
2023/01/21 05:02:50;;;;;;;19.67;12.63;;;;;;;;;;5038299;28;20812;-75
2023/01/21 05:05:16;;;;;;;19.90;12.13;;;;;;;;;;5036126;28;20264;-75
2023/01/21 05:07:42;;;;;;;20.20;12.37;;;;;;;;;;5046971;28;20215;-75
2023/01/21 05:10:10;;;;;;;20.63;12.63;;;;;;;;;;5042764;28;20783;-75
2023/01/21 05:12:36;;;;;;;19.47;11.67;;;;;;;;;;5014990;28;20205;-75
2023/01/21 05:15:03;;;;;;;21.00;12.60;;;;;;;;;;5046397;28;20618;-75
2023/01/21 05:17:29;;;;;;;17.63;11.13;;;;;;;;;;5038939;28;20261;-74
2023/01/21 05:19:55;;;;;;;17.67;11.03;;;;;;;;;;5037621;28;20182;-74
2023/01/21 05:22:21;;;;;;;14.87;9.90;;;;;;;;;;5034166;28;20653;-74
2023/01/21 05:24:48;;;;;;;16.33;10.70;;;;;;;;;;5042395;28;20312;-74
2023/01/21 05:27:14;;;;;;;17.30;10.30;;;;;;;;;;5042989;28;20215;-74
2023/01/21 05:29:41;;;;;;;16.57;10.43;;;;;;;;;;5040859;28;20179;-74
2023/01/21 05:32:07;;;;;;;15.13;9.83;;;;;;;;;;5043780;28;20444;-75
2023/01/21 05:34:33;;;;;;;17.83;11.40;;;;;;;;;;5043320;28;20210;-75
2023/01/21 05:36:59;;;;;;;16.90;10.20;;;;;;;;;;5043468;28;20203;-75
2023/01/21 05:39:25;;;;;;;15.93;10.20;;;;;;;;;;5043254;28;20705;-75
2023/01/21 05:41:51;;;;;;;14.40;9.60;;;;;;;;;;5020691;28;20204;-75
2023/01/21 05:44:17;;;;;;;13.87;9.53;;;;;;;;;;5044628;28;20309;-75
2023/01/21 05:46:43;;;;;;;18.27;10.10;;;;;;;;;;5045458;28;20681;-74
2023/01/21 05:49:09;;;;;;;15.03;10.10;;;;;;;;;;5037643;28;20217;-75
2023/01/21 05:51:36;;;;;;;17.23;10.90;;;;;;;;;;5038032;28;20485;-75
2023/01/21 05:54:02;;;;;;;16.80;10.00;;;;;;;;;;5040889;28;20210;-75
2023/01/21 05:56:28;;;;;;;15.53;10.00;;;;;;;;;;5041300;28;20192;-75
2023/01/21 05:58:54;;;;;;;15.93;10.50;;;;;;;;;;5040999;28;20261;-74
2023/01/21 06:01:20;;;;;;;16.97;10.47;;;;;;;;;;5040815;28;20484;-74
2023/01/21 06:03:46;;;;;;;17.53;10.63;;;;;;;;;;5042529;28;20217;-74
2023/01/21 06:06:12;;;;;;;17.40;11.30;;;;;;;;;;5041592;28;20505;-76
2023/01/21 06:08:38;;;;;;;15.73;10.47;;;;;;;;;;5038050;28;20205;-74
2023/01/21 06:11:04;;;;;;;16.30;10.23;;;;;;;;;;5045819;28;20515;-75
2023/01/21 06:13:31;;;;;;;15.03;10.07;;;;;;;;;;5042920;28;20311;-74
2023/01/21 06:15:57;;;;;;;16.73;10.80;;;;;;;;;;5036004;28;20235;-74
2023/01/21 06:18:23;;;;;;;15.67;9.70;;;;;;;;;;5036758;28;20837;-74
2023/01/21 06:20:50;;;;;;;16.17;10.13;;;;;;;;;;5033507;28;20201;-76
2023/01/21 06:23:16;;;;;;;13.70;9.60;;;;;;;;;;5040680;28;20217;-74
2023/01/21 06:25:42;;;;;;;16.87;11.17;;;;;;;;;;5041968;28;20239;-74
2023/01/21 06:28:12;;;;;;;17.60;10.97;;;;;;;;;;5040119;28;20182;-74
2023/01/21 06:30:38;;;;;;;22.03;13.03;;;;;;;;;;5038790;28;20181;-75
2023/01/21 06:33:05;;;;;;;16.73;10.97;;;;;;;;;;5058206;28;21350;-74
2023/01/21 06:35:31;;;;;;;17.13;11.33;;;;;;;;;;5038973;28;20264;-75
2023/01/21 06:37:57;;;;;;;20.90;12.70;;;;;;;;;;5036879;28;20699;-75
2023/01/21 06:40:24;;;;;;;21.97;13.73;;;;;;;;;;5046119;28;20186;-74
2023/01/21 06:42:50;;;;;;;22.27;13.67;;;;;;;;;;5043531;28;20462;-74
2023/01/21 06:45:16;;;;;;;21.80;13.17;;;;;;;;;;5040507;28;20213;-74
2023/01/21 06:47:43;;;;;;;17.47;11.33;;;;;;;;;;5041338;28;20179;-74
2023/01/21 06:50:10;;;;;;;20.20;14.07;;;;;;;;;;5039395;28;20196;-75
2023/01/21 06:52:36;;;;;;;23.70;14.47;;;;;;;;;;5041723;28;20217;-74
2023/01/21 06:55:02;;;;;;;22.13;14.20;;;;;;;;;;5044680;28;20225;-73
2023/01/21 06:57:29;;;;;;;21.40;13.77;;;;;;;;;;5037840;28;20193;-74
2023/01/21 06:59:55;;;;;;;22.33;14.03;;;;;;;;;;5040924;28;20451;-74
2023/01/21 07:02:21;;;;;;;21.13;13.30;;;;;;;;;;5036007;28;20178;-74
2023/01/21 07:04:50;;;;;;;23.53;14.90;;;;;;;;;;5040323;28;20233;-74
2023/01/21 07:07:16;;;;;;;26.13;14.43;;;;;;;;;;5041792;28;20443;-74
2023/01/21 07:09:42;;;;;;;24.13;14.70;;;;;;;;;;5043011;28;20626;-75
2023/01/21 07:12:09;;;;;;;20.03;13.33;;;;;;;;;;5041770;28;20491;-75
2023/01/21 07:14:35;;;;;;;22.70;14.37;;;;;;;;;;5041253;28;20214;-74
2023/01/21 07:17:01;;;;;;;26.20;15.10;;;;;;;;;;5037379;28;20556;-74
2023/01/21 07:19:27;;;;;;;21.50;13.87;;;;;;;;;;5038455;28;20436;-75
2023/01/21 07:21:54;;;;;;;23.47;16.07;;;;;;;;;;5039547;28;20440;-74
2023/01/21 07:24:20;;;;;;;23.23;15.17;;;;;;;;;;5041964;28;20293;-75
2023/01/21 07:26:47;;;;;;;25.63;15.60;;;;;;;;;;5038506;28;20173;-74
2023/01/21 07:29:13;;;;;;;26.40;15.87;;;;;;;;;;5041910;28;20429;-76
2023/01/21 07:31:39;;;;;;;26.67;16.73;;;;;;;;;;5038574;28;20186;-74
2023/01/21 07:34:05;;;;;;;23.83;15.57;;;;;;;;;;5040180;28;20320;-75
2023/01/21 07:36:32;;;;;;;27.53;16.63;;;;;;;;;;5038536;28;20444;-74
2023/01/21 07:38:58;;;;;;;26.57;15.30;;;;;;;;;;5040168;28;20204;-74
2023/01/21 07:41:24;;;;;;;25.67;16.30;;;;;;;;;;5037979;28;20174;-74
2023/01/21 07:43:51;;;;;;;26.90;17.03;;;;;;;;;;5043359;28;20476;-74
2023/01/21 07:46:18;;;;;;;24.33;15.73;;;;;;;;;;5037724;28;20649;-73
2023/01/21 07:48:44;;;;;;;23.77;15.47;;;;;;;;;;5037089;28;20421;-74
2023/01/21 07:51:10;;;;;;;23.40;15.03;;;;;;;;;;5034667;28;20433;-73
2023/01/21 07:53:36;;;;;;;25.40;15.87;;;;;;;;;;5038224;28;20682;-73
2023/01/21 07:56:03;;;;;;;25.77;16.63;;;;;;;;;;5039460;28;20273;-74
2023/01/21 07:58:29;;;;;;;21.37;14.10;;;;;;;;;;5035113;28;20216;-74
2023/01/21 08:00:55;;;;;;;25.70;14.97;;;;;;;;;;5037687;28;20181;-74
2023/01/21 08:03:23;;;;;;;24.87;15.23;;;;;;;;;;5041220;28;20219;-74
2023/01/21 08:05:50;;;;;;;21.63;13.57;;;;;;;;;;5044546;28;20440;-73
2023/01/21 08:08:20;;;;;;;21.60;14.13;;;;;;;;;;5041885;28;20271;-74
2023/01/21 08:10:55;;;;;;;25.77;15.67;;;;;;;;;;5037235;28;20796;-74
2023/01/21 08:13:21;;;;;;;23.50;15.30;;;;;;;;;;5037651;28;20529;-73
2023/01/21 08:15:51;;;;;;;24.97;15.07;;;;;;;;;;5035671;28;20180;-73
2023/01/21 08:18:18;;;;;;;22.23;13.53;;;;;;;;;;5034607;28;20267;-74
2023/01/21 08:20:44;;;;;;;22.77;14.33;;;;;;;;;;5038279;28;20742;-73
2023/01/21 08:23:10;;;;;;;23.57;14.80;;;;;;;;;;5042243;28;20201;-74
2023/01/21 08:25:37;;;;;;;23.30;14.47;;;;;;;;;;5037510;28;20293;-74
2023/01/21 08:28:04;;;;;;;27.83;16.43;;;;;;;;;;5055138;28;20555;-74
2023/01/21 08:30:30;;;;;;;29.47;17.90;;;;;;;;;;5042030;28;20181;-74
2023/01/21 08:32:56;;;;;;;26.40;16.43;;;;;;;;;;5042889;28;20460;-74
2023/01/21 08:35:22;;;;;;;27.70;17.27;;;;;;;;;;5037871;28;20209;-75
2023/01/21 08:37:49;;;;;;;25.67;16.17;;;;;;;;;;5044158;28;20178;-73
2023/01/21 08:40:15;;;;;;;26.87;16.90;;;;;;;;;;5036107;28;20961;-73
2023/01/21 08:42:41;;;;;;;25.83;16.83;;;;;;;;;;5040969;28;20476;-73
2023/01/21 08:45:07;;;;;;;29.00;18.23;;;;;;;;;;5040084;28;20272;-73
2023/01/21 08:47:34;;;;;;;30.30;18.37;;;;;;;;;;5037458;28;20240;-73
2023/01/21 08:50:00;;;;;;;31.47;19.17;;;;;;;;;;5043184;28;20212;-74
2023/01/21 08:52:26;;;;;;;31.47;19.50;;;;;;;;;;5043129;28;20440;-74
2023/01/21 08:54:52;;;;;;;29.30;18.03;;;;;;;;;;5043570;28;20432;-73
2023/01/21 08:57:18;;;;;;;32.23;19.27;;;;;;;;;;5037955;28;20587;-73
2023/01/21 08:59:44;;;;;;;31.13;19.00;;;;;;;;;;5041757;28;20205;-73
2023/01/21 09:02:11;;;;;;;30.33;18.03;;;;;;;;;;5044887;28;20188;-73
2023/01/21 09:04:37;;;;;;;26.13;16.97;;;;;;;;;;5042623;28;20967;-75
2023/01/21 09:07:03;;;;;;;34.10;20.83;;;;;;;;;;5045335;28;20182;-73
2023/01/21 09:09:30;;;;;;;32.83;20.07;;;;;;;;;;5051474;28;20182;-73
2023/01/21 09:11:56;;;;;;;30.97;19.83;;;;;;;;;;5045816;28;20181;-73
2023/01/21 09:14:22;;;;;;;29.03;18.90;;;;;;;;;;5046740;28;20209;-73
2023/01/21 09:16:49;;;;;;;30.80;19.50;;;;;;;;;;5038476;28;20186;-73
2023/01/21 09:19:15;;;;;;;31.57;19.80;;;;;;;;;;5041233;28;20215;-74
2023/01/21 09:21:41;;;;;;;30.00;18.37;;;;;;;;;;5040797;28;20181;-75
2023/01/21 09:24:08;;;;;;;34.07;21.07;;;;;;;;;;5028724;28;20209;-74
2023/01/21 09:26:34;;;;;;;32.97;21.00;;;;;;;;;;5042947;28;20178;-75
2023/01/21 09:29:01;;;;;;;32.83;21.13;;;;;;;;;;5043069;28;20184;-74
2023/01/21 09:31:28;;;;;;;33.30;21.50;;;;;;;;;;5045216;28;20178;-73
2023/01/21 09:33:56;;;;;;;35.50;20.60;;;;;;;;;;5045430;28;20728;-74
2023/01/21 09:36:24;;;;;;;32.37;21.23;;;;;;;;;;5036863;28;20958;-76
2023/01/21 09:38:50;;;;;;;38.93;21.23;;;;;;;;;;5035618;28;20191;-73
2023/01/21 09:41:35;;;;;;;36.40;21.87;;;;;;;;;;5040309;28;20191;-73
2023/01/21 09:44:04;;;;;;;34.77;20.27;;;;;;;;;;5038432;28;20229;-73
2023/01/21 09:46:40;;;;;;;35.93;21.53;;;;;;;;;;5037813;28;20181;-73
2023/01/21 09:49:10;;;;;;;35.23;21.20;;;;;;;;;;5041924;28;20182;-73
2023/01/21 09:51:42;;;;;;;36.03;20.70;;;;;;;;;;5059545;28;20184;-73
2023/01/21 09:54:17;;;;;;;36.63;20.40;;;;;;;;;;5038283;28;20209;-73
2023/01/21 09:56:56;;;;;;;32.83;19.83;;;;;;;;;;5036296;28;20229;-73
2023/01/21 09:59:26;;;;;;;34.83;20.93;;;;;;;;;;5041986;28;20193;-74
2023/01/21 10:01:58;;;;;;;33.00;20.50;;;;;;;;;;5039606;28;20181;-73
2023/01/21 10:04:24;;;;;;;36.47;22.03;;;;;;;;;;5040021;28;20213;-74
2023/01/21 10:06:50;;;;;;;33.80;20.07;;;;;;;;;;5037533;28;20265;-73
2023/01/21 10:09:19;;;;;;;35.37;21.73;;;;;;;;;;5039138;28;20181;-73
2023/01/21 10:11:52;;;;;;;33.67;20.50;;;;;;;;;;5037251;28;20529;-73
2023/01/21 10:14:36;;;;;;;31.20;19.63;;;;;;;;;;5034214;28;20230;-73
2023/01/21 10:17:13;;;;;;;31.40;19.83;;;;;;;;;;5039588;28;20186;-73
2023/01/21 10:19:43;;;;;;;30.80;19.23;;;;;;;;;;5038593;28;20182;-72
2023/01/21 10:22:12;;;;;;;34.77;19.83;;;;;;;;;;5040909;28;20186;-73
2023/01/21 10:24:45;;;;;;;32.23;19.10;;;;;;;;;;5038621;28;20718;-74
2023/01/21 10:27:15;;;;;;;31.13;20.03;;;;;;;;;;5036726;28;20213;-74
2023/01/21 10:29:41;;;;;;;31.83;20.13;;;;;;;;;;5040324;28;20186;-74
2023/01/21 10:32:12;;;;;;;36.53;21.50;;;;;;;;;;5044619;28;21038;-75
2023/01/21 10:34:44;;;;;;;35.93;21.47;;;;;;;;;;5039350;28;20212;-73
2023/01/21 10:37:29;;;;;;;34.50;20.77;;;;;;;;;;5041229;28;20186;-73
2023/01/21 10:40:41;;;;;;;34.37;20.43;;;;;;;;;;5036450;28;20594;-74
2023/01/21 10:43:16;;;;;;;36.13;22.20;;;;;;;;;;5037456;28;20290;-74
2023/01/21 10:46:05;;;;;;;38.23;23.07;;;;;;;;;;5042012;28;20225;-74
2023/01/21 10:48:36;;;;;;;30.87;20.47;;;;;;;;;;5037400;28;20705;-74
2023/01/21 10:51:03;;;;;;;36.60;22.67;;;;;;;;;;5038501;28;20179;-72
2023/01/21 10:53:33;;;;;;;33.37;20.93;;;;;;;;;;5040718;28;20214;-74
2023/01/21 10:56:14;;;;;;;34.33;21.10;;;;;;;;;;5051811;28;20187;-72
2023/01/21 10:58:42;;;;;;;30.30;19.57;;;;;;;;;;5041230;28;20182;-71
2023/01/21 11:01:14;;;;;;;30.07;19.47;;;;;;;;;;5042932;28;20184;-73
2023/01/21 11:03:43;;;;;;;32.93;19.70;;;;;;;;;;5039928;28;20681;-73
2023/01/21 11:06:11;;;;;;;31.30;19.77;;;;;;;;;;5037803;28;20253;-74
2023/01/21 11:08:38;;;;;;;24.97;16.43;;;;;;;;;;5033353;28;20236;-74
2023/01/21 11:11:05;;;;;;;26.40;16.57;;;;;;;;;;5041017;28;20193;-75
2023/01/21 11:13:32;;;;;;;26.07;16.60;;;;;;;;;;5046466;28;20198;-73
2023/01/21 11:15:59;;;;;;;24.57;15.83;;;;;;;;;;5045033;28;20220;-72
2023/01/21 11:18:26;;;;;;;25.47;15.57;;;;;;;;;;5044332;28;20182;-76
2023/01/21 11:20:55;;;;;;;27.10;15.93;;;;;;;;;;5035274;28;20193;-74
2023/01/21 11:23:26;;;;;;;26.60;15.23;;;;;;;;;;5043631;28;20210;-75
2023/01/21 11:26:00;;;;;;;22.97;15.13;;;;;;;;;;5023512;28;20177;-76
2023/01/21 11:28:28;;;;;;;25.63;16.00;;;;;;;;;;5043134;28;20193;-75
2023/01/21 11:31:07;;;;;;;25.43;15.93;;;;;;;;;;5042468;28;20684;-75
2023/01/21 11:33:34;;;;;;;27.10;15.57;;;;;;;;;;5034518;28;20308;-76
2023/01/21 11:36:09;;;;;;;24.60;15.20;;;;;;;;;;5036710;28;20189;-76
2023/01/21 11:38:35;;;;;;;22.83;14.10;;;;;;;;;;5041997;28;20634;-75
2023/01/21 11:41:02;;;;;;;23.30;15.07;;;;;;;;;;5036874;28;20186;-77
2023/01/21 11:43:45;;;;;;;24.63;15.43;;;;;;;;;;5035375;28;20199;-75
2023/01/21 11:46:27;;;;;;;26.30;15.97;;;;;;;;;;5024050;28;20200;-75
2023/01/21 11:49:12;;;;;;;25.77;15.60;;;;;;;;;;5041613;28;20186;-74
2023/01/21 11:51:40;;;;;;;28.23;16.97;;;;;;;;;;5030298;28;20197;-76
2023/01/21 11:54:13;;;;;;;28.30;16.77;;;;;;;;;;5042043;28;20201;-75
2023/01/21 11:56:42;;;;;;;25.93;15.70;;;;;;;;;;5021451;28;20189;-74
2023/01/21 11:59:34;;;;;;;29.23;17.80;;;;;;;;;;5040748;28;20190;-75
2023/01/21 12:02:05;;;;;;;27.43;17.73;;;;;;;;;;5034535;28;20194;-77
2023/01/21 12:04:32;;;;;;;26.90;16.43;;;;;;;;;;5027020;28;20241;-75
2023/01/21 12:06:59;;;;;;;27.80;15.73;;;;;;;;;;5027375;28;20621;-76
2023/01/21 12:09:27;;;;;;;25.97;16.43;;;;;;;;;;5019189;28;20189;-74
2023/01/21 12:12:12;;;;;;;24.87;15.67;;;;;;;;;;5035773;28;20344;-75
2023/01/21 12:14:45;;;;;;;23.20;14.70;;;;;;;;;;5028951;28;20210;-74
2023/01/21 12:17:28;;;;;;;25.40;15.93;;;;;;;;;;5040351;28;20223;-76
2023/01/21 12:20:07;;;;;;;22.57;14.47;;;;;;;;;;5045055;28;20219;-74
2023/01/21 12:22:45;;;;;;;28.57;14.20;;;;;;;;;;5049591;28;20260;-75
2023/01/21 12:25:14;;;;;;;27.20;14.97;;;;;;;;;;5040542;28;20228;-75
2023/01/21 12:27:55;;;;;;;22.70;14.43;;;;;;;;;;5049021;28;20189;-74
2023/01/21 12:30:27;;;;;;;23.23;13.73;;;;;;;;;;5048103;28;20235;-76
2023/01/21 12:33:11;;;;;;;22.27;15.07;;;;;;;;;;5030866;28;20216;-76
2023/01/21 12:35:40;;;;;;;23.63;14.87;;;;;;;;;;5028846;28;20244;-74
2023/01/21 12:38:09;;;;;;;20.67;14.03;;;;;;;;;;5037189;28;20193;-74
2023/01/21 12:40:44;;;;;;;23.07;14.77;;;;;;;;;;5041593;28;20242;-74
2023/01/21 12:43:26;;;;;;;22.93;14.00;;;;;;;;;;5048899;28;20231;-74
2023/01/21 12:45:58;;;;;;;24.60;14.03;;;;;;;;;;5025645;28;20194;-74
2023/01/21 12:48:28;;;;;;;22.73;14.40;;;;;;;;;;5047875;28;20205;-73
2023/01/21 12:50:57;;;;;;;20.97;14.07;;;;;;;;;;5044384;28;20611;-74
2023/01/21 12:53:35;;;;;;;22.47;14.67;;;;;;;;;;5033429;28;20290;-74
2023/01/21 12:56:04;;;;;;;22.17;13.53;;;;;;;;;;5036011;28;20205;-75
2023/01/21 12:58:32;;;;;;;23.07;14.10;;;;;;;;;;5047754;28;20193;-75
2023/01/21 13:01:05;;;;;;;22.97;14.43;;;;;;;;;;5050656;28;20701;-73
2023/01/21 13:03:49;;;;;;;25.47;14.50;;;;;;;;;;5050902;28;20233;-76
2023/01/21 13:06:24;;;;;;;20.00;13.67;;;;;;;;;;5043495;28;20182;-74
2023/01/21 13:09:07;;;;;;;19.33;12.70;;;;;;;;;;5044834;28;20231;-75
2023/01/21 13:11:39;;;;;;;20.67;12.77;;;;;;;;;;5049907;28;20178;-78
2023/01/21 13:14:08;;;;;;;17.27;12.10;;;;;;;;;;5032597;28;20793;-74
2023/01/21 13:16:46;;;;;;;22.43;13.37;;;;;;;;;;5035350;28;20181;-76
2023/01/21 13:19:13;;;;;;;19.53;12.67;;;;;;;;;;5049317;28;20213;-74
2023/01/21 13:21:54;;;;;;;19.13;12.40;;;;;;;;;;5034976;28;20175;-74
2023/01/21 13:24:20;;;;;;;19.80;12.63;;;;;;;;;;5041393;28;20206;-74
2023/01/21 13:26:54;;;;;;;22.50;12.80;;;;;;;;;;5011256;28;20228;-74
2023/01/21 13:29:59;;;;;;;21.10;12.77;;;;;;;;;;5030525;28;20181;-74
2023/01/21 13:32:35;;;;;;;19.77;12.80;;;;;;;;;;5005161;28;20277;-74
2023/01/21 13:35:07;;;;;;;17.73;11.93;;;;;;;;;;5007335;28;20302;-77
2023/01/21 13:37:41;;;;;;;17.83;11.50;;;;;;;;;;5023103;28;20194;-76
2023/01/21 13:40:19;;;;;;;18.67;11.87;;;;;;;;;;5038954;28;20186;-75
2023/01/21 13:43:04;;;;;;;19.17;12.33;;;;;;;;;;5028300;28;20575;-75
2023/01/21 13:45:46;;;;;;;19.33;12.47;;;;;;;;;;5046217;28;20816;-75
2023/01/21 13:48:15;;;;;;;17.57;11.53;;;;;;;;;;5057489;28;20181;-75
2023/01/21 13:50:52;;;;;;;18.23;11.67;;;;;;;;;;5035461;28;20182;-76
2023/01/21 13:53:28;;;;;;;17.23;11.97;;;;;;;;;;5044792;28;20286;-74
2023/01/21 13:55:59;;;;;;;18.97;12.37;;;;;;;;;;5040735;28;20183;-75
2023/01/21 13:58:42;;;;;;;18.80;11.60;;;;;;;;;;5054245;28;20186;-74
2023/01/21 14:01:14;;;;;;;16.40;10.90;;;;;;;;;;5035339;28;20276;-74
2023/01/21 14:03:43;;;;;;;17.67;11.00;;;;;;;;;;5044616;28;20281;-74
2023/01/21 14:06:14;;;;;;;16.33;11.32;;;;;;;;;;5041032;28;20477;-75
2023/01/21 14:08:49;;;;;;;15.50;10.30;;;;;;;;;;5042662;28;20190;-78
2023/01/21 14:11:24;;;;;;;16.67;10.97;;;;;;;;;;5042400;28;20274;-75
2023/01/21 14:14:14;;;;;;;17.70;10.83;;;;;;;;;;5029695;28;20209;-73
2023/01/21 14:16:48;;;;;;;16.20;10.10;;;;;;;;;;5018453;28;20507;-76
2023/01/21 14:19:14;;;;;;;18.00;10.10;;;;;;;;;;5047881;28;20242;-74
2023/01/21 14:21:47;;;;;;;16.17;10.40;;;;;;;;;;5044101;28;20210;-74
2023/01/21 14:24:32;;;;;;;18.80;11.23;;;;;;;;;;5037268;28;20543;-73
2023/01/21 14:27:05;;;;;;;14.80;10.17;;;;;;;;;;5039200;28;20179;-74
2023/01/21 14:29:36;;;;;;;17.43;10.70;;;;;;;;;;5035300;28;20201;-80
2023/01/21 14:32:21;;;;;;;16.40;10.20;;;;;;;;;;5041066;28;20178;-75
2023/01/21 14:34:51;;;;;;;17.67;11.30;;;;;;;;;;5043649;28;20237;-73
2023/01/21 14:37:28;;;;;;;15.73;10.30;;;;;;;;;;5043158;28;20182;-73